createdAt,value
2023-03-16T00:02:51.860Z,2.97
2023-03-16T00:08:15.303Z,2.30
2023-03-16T00:13:37.884Z,2.40
2023-03-16T00:19:00.309Z,2.53
2023-03-16T00:24:25.088Z,2.70
2023-03-16T00:29:48.760Z,2.13
2023-03-16T00:35:11.153Z,2.40
2023-03-16T00:40:34.002Z,2.63
2023-03-16T00:46:06.820Z,2.20
2023-03-16T00:51:30.573Z,2.40
2023-03-16T00:56:53.177Z,2.37
2023-03-16T01:02:17.665Z,2.47
2023-03-16T01:07:41.713Z,2.27
2023-03-16T01:13:07.662Z,2.43
2023-03-16T01:18:34.313Z,2.13
2023-03-16T01:23:57.007Z,2.00
2023-03-16T01:29:19.255Z,2.67
2023-03-16T01:34:41.987Z,2.57
2023-03-16T01:40:09.054Z,2.13
2023-03-16T01:46:06.293Z,2.50
2023-03-16T01:51:43.123Z,2.30
2023-03-16T01:57:08.438Z,2.27
2023-03-16T02:02:32.185Z,2.60
2023-03-16T02:07:58.791Z,1.90
2023-03-16T02:13:23.768Z,2.40
2023-03-16T02:18:48.099Z,2.77
2023-03-16T02:24:11.262Z,1.97
2023-03-16T02:29:58.103Z,2.40
2023-03-16T02:35:22.906Z,1.83
2023-03-16T02:40:58.278Z,2.70
2023-03-16T02:46:23.302Z,1.87
2023-03-16T02:51:46.482Z,2.07
2023-03-16T02:57:10.119Z,2.43
2023-03-16T03:02:32.779Z,1.93
2023-03-16T03:07:55.340Z,1.97
2023-03-16T03:13:17.618Z,2.07
2023-03-16T03:18:40.320Z,1.90
2023-03-16T03:24:03.263Z,2.10
2023-03-16T03:29:25.499Z,2.67
2023-03-16T03:34:48.489Z,2.50
2023-03-16T03:40:14.811Z,2.50
2023-03-16T03:45:39.427Z,2.10
2023-03-16T03:51:02.494Z,2.33
2023-03-16T03:56:47.289Z,2.23
2023-03-16T04:02:13.468Z,2.60
2023-03-16T04:07:44.029Z,2.17
2023-03-16T04:13:08.784Z,2.13
2023-03-16T04:18:38.850Z,1.83
2023-03-16T04:24:05.254Z,2.20
2023-03-16T04:29:32.104Z,2.13
2023-03-16T04:34:56.694Z,2.20
2023-03-16T04:40:28.246Z,1.90
2023-03-16T04:45:59.289Z,2.00
2023-03-16T04:51:25.843Z,2.23
2023-03-16T04:57:05.896Z,2.23
2023-03-16T05:02:36.549Z,1.73
2023-03-16T05:08:01.732Z,2.67
2023-03-16T05:13:28.248Z,2.27
2023-03-16T05:18:54.210Z,2.10
2023-03-16T05:24:16.830Z,2.53
2023-03-16T05:29:39.512Z,2.30
2023-03-16T05:35:03.506Z,2.57
2023-03-16T05:40:26.621Z,2.20
2023-03-16T05:46:01.492Z,1.90
2023-03-16T05:51:26.481Z,2.43
2023-03-16T05:56:49.422Z,2.80
2023-03-16T06:02:12.915Z,2.53
2023-03-16T06:07:36.302Z,2.70
2023-03-16T06:12:59.969Z,2.50
2023-03-16T06:18:23.031Z,2.83
2023-03-16T06:23:45.461Z,3.07
2023-03-16T06:29:07.985Z,3.20
2023-03-16T06:34:32.678Z,3.53
2023-03-16T06:39:55.710Z,3.63
2023-03-16T06:45:21.484Z,2.77
2023-03-16T06:50:46.677Z,2.60
2023-03-16T06:56:13.727Z,2.47
2023-03-16T07:01:39.936Z,2.27
2023-03-16T07:07:02.667Z,2.70
2023-03-16T07:12:26.032Z,2.43
2023-03-16T07:17:49.139Z,3.17
2023-03-16T07:23:12.725Z,2.37
2023-03-16T07:28:36.887Z,2.97
2023-03-16T07:34:02.539Z,2.33
2023-03-16T07:39:32.800Z,2.70
2023-03-16T07:45:02.991Z,2.80
2023-03-16T07:50:26.630Z,2.50
2023-03-16T07:55:49.658Z,2.40
2023-03-16T08:01:13.374Z,3.33
2023-03-16T08:06:35.833Z,2.27
2023-03-16T08:11:59.473Z,2.53
2023-03-16T08:17:22.315Z,2.40
2023-03-16T08:22:46.816Z,2.63
2023-03-16T08:28:12.790Z,2.47
2023-03-16T08:33:36.181Z,2.67
2023-03-16T08:39:07.058Z,2.07
2023-03-16T08:44:36.446Z,2.50
2023-03-16T08:49:59.042Z,2.50
2023-03-16T08:55:21.368Z,2.83
2023-03-16T09:00:46.441Z,2.47
2023-03-16T09:06:11.194Z,2.87
2023-03-16T09:11:34.610Z,2.63
2023-03-16T09:16:56.954Z,2.30
2023-03-16T09:22:20.408Z,2.60
2023-03-16T09:27:42.960Z,2.53
2023-03-16T09:33:06.248Z,2.80
2023-03-16T09:38:29.281Z,2.77
2023-03-16T09:43:54.604Z,2.17
2023-03-16T09:49:21.137Z,2.00
2023-03-16T09:54:51.242Z,2.20
2023-03-16T10:00:28.801Z,2.10
2023-03-16T10:05:59.246Z,2.40
2023-03-16T10:11:53.337Z,2.50
2023-03-16T10:17:19.548Z,2.33
2023-03-16T10:22:49.361Z,1.70
2023-03-16T10:28:16.999Z,2.13
2023-03-16T10:33:40.609Z,1.37
2023-03-16T10:39:10.649Z,1.50
2023-03-16T10:44:40.349Z,1.40
2023-03-16T10:50:20.797Z,1.10
2023-03-16T10:55:45.830Z,1.30
2023-03-16T11:01:18.149Z,1.33
2023-03-16T11:06:49.194Z,1.37
2023-03-16T11:12:15.501Z,1.07
2023-03-16T11:17:44.854Z,0.90
2023-03-16T11:23:14.405Z,1.20
2023-03-16T11:28:46.376Z,1.20
2023-03-16T11:34:15.580Z,1.30
2023-03-16T11:40:09.449Z,1.30
2023-03-16T11:45:42.966Z,1.00
2023-03-16T11:51:09.654Z,1.20
2023-03-16T11:56:36.249Z,1.37
2023-03-16T12:02:09.184Z,0.83
2023-03-16T12:07:43.051Z,1.03
2023-03-16T12:13:16.046Z,1.20
2023-03-16T12:18:53.444Z,1.50
2023-03-16T12:24:20.489Z,0.90
2023-03-16T12:29:59.570Z,1.00
2023-03-16T12:35:38.044Z,1.00
2023-03-16T12:41:24.860Z,1.00
2023-03-16T12:47:07.045Z,0.80
2023-03-16T12:52:39.951Z,1.00
2023-03-16T12:58:06.610Z,0.73
2023-03-16T13:03:29.732Z,1.00
2023-03-16T13:09:00.884Z,1.20
2023-03-16T13:14:40.694Z,1.20
2023-03-16T13:20:06.858Z,1.20
2023-03-16T13:25:29.288Z,0.87
2023-03-16T13:30:51.945Z,0.83
2023-03-16T13:36:15.439Z,0.90
2023-03-16T13:41:37.962Z,0.60
2023-03-16T13:47:05.549Z,0.97
2023-03-16T13:52:31.102Z,0.80
2023-03-16T13:57:53.670Z,0.80
2023-03-16T14:03:18.686Z,0.67
2023-03-16T14:08:42.784Z,1.00
2023-03-16T14:14:16.134Z,1.10
2023-03-16T14:19:45.906Z,0.70
2023-03-16T14:25:22.197Z,0.87
2023-03-16T14:31:02.276Z,0.60
2023-03-16T14:36:36.207Z,0.90
2023-03-16T14:41:58.552Z,0.80
2023-03-16T14:47:32.159Z,0.87
2023-03-16T14:52:56.745Z,0.60
2023-03-16T14:58:18.962Z,0.60
2023-03-16T15:03:43.503Z,0.73
2023-03-16T15:09:06.563Z,0.60
2023-03-16T15:14:55.426Z,0.90
2023-03-16T15:20:19.783Z,1.33
2023-03-16T15:25:44.851Z,0.73
2023-03-16T15:31:08.097Z,0.90
2023-03-16T15:36:30.696Z,0.90
2023-03-16T15:41:53.038Z,0.80
2023-03-16T15:47:15.541Z,1.00
2023-03-16T15:52:39.749Z,0.80
2023-03-16T15:58:02.714Z,1.30
2023-03-16T16:03:27.438Z,0.80
2023-03-16T16:08:49.909Z,0.57
2023-03-16T16:14:15.628Z,0.70
2023-03-16T16:19:38.310Z,0.80
2023-03-16T16:25:02.741Z,0.93
2023-03-16T16:30:28.159Z,0.73
2023-03-16T16:35:51.837Z,0.97
2023-03-16T16:41:32.398Z,1.00
2023-03-16T16:46:55.277Z,1.30
2023-03-16T16:52:18.604Z,1.30
2023-03-16T16:57:41.513Z,0.73
2023-03-16T17:03:03.927Z,1.03
2023-03-16T17:08:27.606Z,1.60
2023-03-16T17:13:52.814Z,1.30
2023-03-16T17:19:27.200Z,1.80
2023-03-16T17:24:49.737Z,1.70
2023-03-16T17:30:27.643Z,1.73
2023-03-16T17:35:50.974Z,1.50
2023-03-16T17:41:34.022Z,2.70
2023-03-16T17:46:56.518Z,2.57
2023-03-16T17:52:24.169Z,2.17
2023-03-16T17:57:49.508Z,1.70
2023-03-16T18:03:17.732Z,1.87
2023-03-16T18:08:40.017Z,1.37
2023-03-16T18:14:04.961Z,2.20
2023-03-16T18:19:31.296Z,2.13
2023-03-16T18:24:55.215Z,2.00
2023-03-16T18:30:17.888Z,1.60
2023-03-16T18:35:40.138Z,1.90
2023-03-16T18:41:19.777Z,1.77
2023-03-16T18:46:42.344Z,1.40
2023-03-16T18:52:17.393Z,1.50
2023-03-16T18:57:40.118Z,1.73
2023-03-16T19:03:06.727Z,1.57
2023-03-16T19:08:29.482Z,1.70
2023-03-16T19:13:54.734Z,1.57
2023-03-16T19:19:21.393Z,1.30
2023-03-16T19:24:48.312Z,1.80
2023-03-16T19:30:23.145Z,1.73
2023-03-16T19:35:51.963Z,1.40
2023-03-16T19:41:20.520Z,1.30
2023-03-16T19:46:43.186Z,1.33
2023-03-16T19:52:06.367Z,1.33
2023-03-16T19:57:29.252Z,1.67
2023-03-16T20:02:55.970Z,1.57
2023-03-16T20:08:28.033Z,1.50
2023-03-16T20:13:53.327Z,1.70
2023-03-16T20:19:16.232Z,1.20
2023-03-16T20:24:38.741Z,1.53
2023-03-16T20:30:01.559Z,1.60
2023-03-16T20:35:28.487Z,1.83
2023-03-16T20:40:54.025Z,2.20
2023-03-16T20:46:19.079Z,1.53
2023-03-16T20:51:41.805Z,1.30
2023-03-16T20:57:04.057Z,2.10
2023-03-16T21:02:33.931Z,1.90
2023-03-16T21:07:56.519Z,1.57
2023-03-16T21:13:33.923Z,1.63
2023-03-16T21:18:56.689Z,1.70
2023-03-16T21:24:18.859Z,1.67
2023-03-16T21:29:41.138Z,1.57
2023-03-16T21:35:04.323Z,2.03
2023-03-16T21:40:27.605Z,1.73
2023-03-16T21:45:51.918Z,2.00
2023-03-16T21:51:18.360Z,2.30
2023-03-16T21:56:42.050Z,2.27
2023-03-16T22:02:23.065Z,2.20
2023-03-16T22:07:45.692Z,2.17
2023-03-16T22:13:09.205Z,2.20
2023-03-16T22:18:34.600Z,2.50
2023-03-16T22:23:58.548Z,2.80
2023-03-16T22:29:26.852Z,2.50
2023-03-16T22:34:56.292Z,2.57
2023-03-16T22:40:19.680Z,2.80
2023-03-16T22:45:42.534Z,2.40
2023-03-16T22:51:05.257Z,2.73
2023-03-16T22:56:29.431Z,2.60
2023-03-16T23:01:51.848Z,2.00
2023-03-16T23:07:15.105Z,2.60
2023-03-16T23:12:38.693Z,2.53
2023-03-16T23:18:01.140Z,2.70
2023-03-16T23:23:23.444Z,2.43
2023-03-16T23:28:47.659Z,2.70
2023-03-16T23:34:16.508Z,2.40
2023-03-16T23:39:39.857Z,2.60
2023-03-16T23:45:10.274Z,2.60
2023-03-16T23:50:35.792Z,3.33
2023-03-16T23:55:58.343Z,2.70
